Time;durP1;ratioP1;P1;durP2;ratioP2;P2;SDS_P1;SDS_P2;PMS_P1;PMS_P2;Temp;Humidity;BMP_temperature;BMP_pressure;BME280_temperature;BME280_humidity;BME280_pressure;Samples;Min_cycle;Max_cycle;Signal;HPM_P1;HPM_P2
2023/12/08 00:00:10;;;;;;;31.90;16.80;;;2.40;99.90;;;;;;4993179;28;20047;-72
2023/12/08 00:02:36;;;;;;;29.33;16.38;;;2.40;99.90;;;;;;4993195;28;20077;-72
2023/12/08 00:05:01;;;;;;;32.47;17.52;;;2.60;99.90;;;;;;4992932;28;20073;-72
2023/12/08 00:07:27;;;;;;;36.75;17.63;;;2.50;99.90;;;;;;4991277;28;20046;-72
2023/12/08 00:09:52;;;;;;;29.17;17.33;;;2.40;99.90;;;;;;4992938;28;20081;-72
2023/12/08 00:12:18;;;;;;;36.17;17.15;;;2.50;99.90;;;;;;4992762;28;20046;-72
2023/12/08 00:14:44;;;;;;;28.50;16.63;;;2.50;99.90;;;;;;4992986;28;20034;-72
2023/12/08 00:17:09;;;;;;;28.75;15.30;;;2.40;99.90;;;;;;4992670;28;20553;-72
2023/12/08 00:19:35;;;;;;;27.52;15.57;;;2.50;99.90;;;;;;4992845;28;20046;-72
2023/12/08 00:22:00;;;;;;;26.23;17.13;;;2.50;99.90;;;;;;4992682;28;20073;-72
2023/12/08 00:24:26;;;;;;;34.05;17.45;;;2.40;99.90;;;;;;4992703;28;20038;-72
2023/12/08 00:26:51;;;;;;;30.80;16.77;;;2.40;99.90;;;;;;4992258;28;20034;-72
2023/12/08 00:29:19;;;;;;;31.55;16.45;;;2.40;99.90;;;;;;4992545;28;20494;-72
2023/12/08 00:31:45;;;;;;;35.67;17.42;;;2.40;99.90;;;;;;4991595;28;20042;-72
2023/12/08 00:34:10;;;;;;;26.45;14.93;;;2.40;99.90;;;;;;4992689;28;20068;-72
2023/12/08 00:36:36;;;;;;;31.35;16.42;;;2.30;99.90;;;;;;4992232;28;20046;-72
2023/12/08 00:39:02;;;;;;;30.35;15.23;;;2.50;99.90;;;;;;4992372;28;20046;-72
2023/12/08 00:41:28;;;;;;;27.98;15.02;;;2.40;99.90;;;;;;4992465;28;20034;-72
2023/12/08 00:43:53;;;;;;;25.92;14.88;;;2.40;99.90;;;;;;4992769;28;20077;-72
2023/12/08 00:46:19;;;;;;;29.65;15.98;;;2.40;99.90;;;;;;4990983;28;20073;-72
2023/12/08 00:48:44;;;;;;;29.63;14.80;;;2.30;99.90;;;;;;4992424;28;20049;-72
2023/12/08 00:51:14;;;;;;;29.88;14.35;;;2.40;99.90;;;;;;4992458;28;20057;-72
2023/12/08 00:53:42;;;;;;;27.85;15.95;;;2.40;99.90;;;;;;4992523;28;20049;-72
2023/12/08 00:56:08;;;;;;;28.35;15.05;;;2.40;99.90;;;;;;4992127;28;20417;-72
2023/12/08 00:58:34;;;;;;;26.25;14.45;;;2.30;99.90;;;;;;4996283;28;20042;-72
2023/12/08 01:01:00;;;;;;;29.92;15.68;;;2.30;99.90;;;;;;4996435;28;20046;-72
2023/12/08 01:03:25;;;;;;;27.27;15.27;;;2.30;99.90;;;;;;4996436;28;20033;-72
2023/12/08 01:05:51;;;;;;;27.30;15.88;;;2.30;99.90;;;;;;4994910;28;20038;-72
2023/12/08 01:08:17;;;;;;;30.20;15.40;;;2.40;99.90;;;;;;4996122;28;20038;-72
2023/12/08 01:10:42;;;;;;;29.30;15.38;;;2.30;99.90;;;;;;4996090;28;20129;-73
2023/12/08 01:13:08;;;;;;;28.38;15.27;;;2.30;99.90;;;;;;4996333;28;20042;-72
2023/12/08 01:15:33;;;;;;;32.30;16.30;;;2.40;99.90;;;;;;4996173;28;20441;-72
2023/12/08 01:17:59;;;;;;;30.58;16.73;;;2.30;99.90;;;;;;4994579;28;20042;-72
2023/12/08 01:20:25;;;;;;;27.98;15.77;;;2.40;99.90;;;;;;4994684;28;20038;-72
2023/12/08 01:22:51;;;;;;;28.10;16.17;;;2.40;99.90;;;;;;4994979;28;20046;-72
2023/12/08 01:25:17;;;;;;;32.85;17.60;;;2.40;99.90;;;;;;4994461;28;20521;-72
2023/12/08 01:27:43;;;;;;;28.70;15.02;;;2.30;99.90;;;;;;4995874;28;20034;-72
2023/12/08 01:30:09;;;;;;;32.78;18.00;;;2.30;99.90;;;;;;4996061;28;20042;-72
2023/12/08 01:32:34;;;;;;;31.10;16.75;;;2.40;99.90;;;;;;4995970;28;20046;-72
2023/12/08 01:35:00;;;;;;;27.80;15.48;;;2.30;99.90;;;;;;4995892;28;20038;-72
2023/12/08 01:37:26;;;;;;;26.83;14.85;;;2.20;99.90;;;;;;4995477;28;20094;-72
2023/12/08 01:39:51;;;;;;;28.02;15.05;;;2.30;99.90;;;;;;4995600;28;20461;-72
2023/12/08 01:42:17;;;;;;;26.00;14.98;;;2.40;99.90;;;;;;4995873;28;20114;-72
2023/12/08 01:44:43;;;;;;;28.88;15.88;;;2.30;99.90;;;;;;4994371;28;20046;-72
2023/12/08 01:47:10;;;;;;;26.90;15.38;;;2.30;99.90;;;;;;4994097;28;20461;-72
2023/12/08 01:49:37;;;;;;;29.60;15.77;;;2.40;99.90;;;;;;4995527;28;20536;-72
2023/12/08 01:52:03;;;;;;;30.20;14.25;;;2.30;99.90;;;;;;4994500;28;20046;-72
2023/12/08 01:54:30;;;;;;;27.20;15.40;;;2.30;99.90;;;;;;4995359;28;20042;-72
2023/12/08 01:56:56;;;;;;;27.67;14.32;;;2.40;99.90;;;;;;4995059;28;20514;-72
2023/12/08 01:59:22;;;;;;;30.23;14.70;;;2.30;99.90;;;;;;4995237;28;20414;-72
2023/12/08 02:01:48;;;;;;;25.15;14.48;;;2.30;99.90;;;;;;4995438;28;20043;-72
2023/12/08 02:04:14;;;;;;;30.60;15.25;;;2.30;99.90;;;;;;4995430;28;20124;-72
2023/12/08 02:06:40;;;;;;;27.63;14.93;;;2.40;99.90;;;;;;4994872;28;20078;-72
2023/12/08 02:09:07;;;;;;;28.60;13.52;;;2.40;99.90;;;;;;4993964;28;20395;-72
2023/12/08 02:11:34;;;;;;;28.85;15.10;;;2.30;99.90;;;;;;4995286;28;20406;-72
2023/12/08 02:14:01;;;;;;;29.20;15.30;;;2.40;99.90;;;;;;4995217;28;20050;-72
2023/12/08 02:16:47;;;;;;;27.27;14.38;;;2.30;99.90;;;;;;4994911;28;20453;-72
2023/12/08 02:19:13;;;;;;;25.95;14.48;;;2.30;99.90;;;;;;4994968;28;20038;-72
2023/12/08 02:21:39;;;;;;;30.02;14.77;;;2.40;99.90;;;;;;4993564;28;20117;-72
2023/12/08 02:24:05;;;;;;;28.20;14.30;;;2.30;99.90;;;;;;4993623;28;20134;-72
2023/12/08 02:26:31;;;;;;;29.08;15.38;;;2.40;99.90;;;;;;4993572;28;20037;-72
2023/12/08 02:28:57;;;;;;;30.13;14.68;;;2.40;99.90;;;;;;4993478;28;20500;-72
2023/12/08 02:31:35;;;;;;;27.80;16.05;;;2.30;99.90;;;;;;4994721;28;20048;-72
2023/12/08 02:34:02;;;;;;;26.42;14.23;;;2.40;99.90;;;;;;4993448;28;20059;-72
2023/12/08 02:36:28;;;;;;;27.00;14.30;;;2.40;99.90;;;;;;4993153;28;20125;-72
2023/12/08 02:38:54;;;;;;;24.85;14.27;;;2.30;99.90;;;;;;4994456;28;20042;-72
2023/12/08 02:41:20;;;;;;;25.92;13.90;;;2.30;99.90;;;;;;4993217;28;20181;-72
2023/12/08 02:43:46;;;;;;;25.73;13.48;;;2.30;99.90;;;;;;4994631;28;20117;-72
2023/12/08 02:46:12;;;;;;;26.10;13.35;;;2.20;99.90;;;;;;4994221;28;20038;-72
2023/12/08 02:48:38;;;;;;;22.33;12.40;;;2.40;99.90;;;;;;4994304;28;20410;-72
2023/12/08 02:51:04;;;;;;;29.75;14.27;;;2.40;99.90;;;;;;4994555;28;20042;-72
2023/12/08 02:53:29;;;;;;;24.67;13.60;;;2.30;99.90;;;;;;4994325;28;20101;-72
2023/12/08 02:55:55;;;;;;;25.92;13.68;;;2.30;99.90;;;;;;4993079;28;20054;-72
2023/12/08 02:58:20;;;;;;;29.35;14.63;;;2.30;99.90;;;;;;4994256;28;20038;-72
2023/12/08 03:00:46;;;;;;;27.13;14.63;;;2.20;99.90;;;;;;4994187;28;20042;-72
2023/12/08 03:03:12;;;;;;;23.88;13.13;;;2.30;99.90;;;;;;4994115;28;20045;-72
2023/12/08 03:05:37;;;;;;;23.58;13.85;;;2.30;99.90;;;;;;4994164;28;20078;-72
2023/12/08 03:08:03;;;;;;;26.13;14.27;;;2.20;99.90;;;;;;4994002;28;20085;-72
2023/12/08 03:10:28;;;;;;;25.48;13.50;;;2.20;99.90;;;;;;4994141;28;20129;-72
2023/12/08 03:12:54;;;;;;;25.38;14.05;;;2.30;99.90;;;;;;4994079;28;20406;-72
2023/12/08 03:15:20;;;;;;;27.48;13.75;;;2.30;99.90;;;;;;4992556;28;20043;-72
2023/12/08 03:17:45;;;;;;;27.20;14.50;;;2.30;99.90;;;;;;4993662;28;20116;-72
2023/12/08 03:20:11;;;;;;;23.98;13.00;;;2.30;99.90;;;;;;4992306;28;20047;-72
2023/12/08 03:22:37;;;;;;;23.65;13.05;;;2.30;99.90;;;;;;4993959;28;20042;-72
2023/12/08 03:25:02;;;;;;;27.73;14.07;;;2.30;99.90;;;;;;4993870;28;20113;-72
2023/12/08 03:27:28;;;;;;;21.88;12.43;;;2.30;99.90;;;;;;4993488;28;20516;-72
2023/12/08 03:29:53;;;;;;;21.35;13.63;;;2.30;99.90;;;;;;4993718;28;20042;-72
2023/12/08 03:32:19;;;;;;;25.92;13.27;;;2.30;99.90;;;;;;4993554;28;20520;-72
2023/12/08 03:34:44;;;;;;;25.88;12.95;;;2.20;99.90;;;;;;4993440;28;20097;-72
2023/12/08 03:37:10;;;;;;;22.70;13.20;;;2.20;99.90;;;;;;4991869;28;20129;-72
2023/12/08 03:39:36;;;;;;;24.42;14.13;;;2.30;99.90;;;;;;4993551;28;20121;-72
2023/12/08 03:42:01;;;;;;;23.15;13.10;;;2.20;99.90;;;;;;4993432;28;20490;-72
2023/12/08 03:44:27;;;;;;;20.58;11.75;;;2.20;99.90;;;;;;4993395;28;20038;-72
2023/12/08 03:46:52;;;;;;;21.98;11.95;;;2.20;99.90;;;;;;4991723;28;20537;-72
2023/12/08 03:49:18;;;;;;;22.20;11.95;;;2.20;99.90;;;;;;4993436;28;20053;-72
2023/12/08 03:51:44;;;;;;;25.55;13.23;;;2.30;99.90;;;;;;4993404;28;20042;-72
2023/12/08 03:54:09;;;;;;;22.45;13.15;;;2.30;99.90;;;;;;4993303;28;20038;-72
2023/12/08 03:56:35;;;;;;;24.42;13.18;;;2.20;99.90;;;;;;4992854;28;20034;-72
2023/12/08 03:59:00;;;;;;;23.05;12.43;;;2.30;99.90;;;;;;4993089;28;20104;-72
2023/12/08 04:01:26;;;;;;;26.02;13.43;;;2.30;99.90;;;;;;4992989;28;20049;-72
2023/12/08 04:03:51;;;;;;;24.17;12.93;;;2.30;99.90;;;;;;4993024;28;20084;-72
2023/12/08 04:06:17;;;;;;;23.42;12.75;;;2.30;99.90;;;;;;4991660;28;20039;-72
2023/12/08 04:08:43;;;;;;;23.80;12.63;;;2.30;99.90;;;;;;4993024;28;20038;-72
2023/12/08 04:11:09;;;;;;;22.73;12.73;;;2.30;99.90;;;;;;4991607;28;20125;-72
2023/12/08 04:13:35;;;;;;;21.23;12.48;;;2.20;99.90;;;;;;4991578;28;20049;-72
2023/12/08 04:16:00;;;;;;;21.13;13.52;;;2.30;99.90;;;;;;4992474;28;20042;-72
2023/12/08 04:18:26;;;;;;;23.48;11.90;;;2.30;99.90;;;;;;4992898;28;20038;-72
2023/12/08 04:20:51;;;;;;;24.77;13.20;;;2.30;99.90;;;;;;4991424;28;20122;-73
2023/12/08 04:23:17;;;;;;;23.23;13.52;;;2.30;99.90;;;;;;4992869;28;20046;-73
2023/12/08 04:25:42;;;;;;;22.77;11.60;;;2.10;99.90;;;;;;4992654;28;20534;-73
2023/12/08 04:28:08;;;;;;;23.20;12.75;;;2.20;99.90;;;;;;4991170;28;20044;-73
2023/12/08 04:30:34;;;;;;;24.38;12.52;;;2.20;99.90;;;;;;4992526;28;20081;-72
2023/12/08 04:32:59;;;;;;;20.95;12.00;;;2.10;99.90;;;;;;4992059;28;20093;-72
2023/12/08 04:35:25;;;;;;;21.45;12.80;;;2.00;99.90;;;;;;4991501;28;20458;-72
2023/12/08 04:37:50;;;;;;;26.60;13.80;;;2.00;99.90;;;;;;4992290;28;20045;-73
2023/12/08 04:40:17;;;;;;;23.98;13.05;;;1.90;99.90;;;;;;4992453;28;20101;-73
2023/12/08 04:42:43;;;;;;;23.15;13.23;;;1.90;99.90;;;;;;4991222;28;20050;-73
2023/12/08 04:45:09;;;;;;;26.85;13.85;;;1.90;99.90;;;;;;5009557;28;20053;-73
2023/12/08 04:47:36;;;;;;;24.77;12.43;;;1.80;99.90;;;;;;5011915;28;20603;-73
2023/12/08 04:50:02;;;;;;;24.20;12.70;;;1.90;99.90;;;;;;5012137;28;20052;-73
2023/12/08 04:52:28;;;;;;;28.23;13.38;;;1.90;99.90;;;;;;5012116;28;20052;-72
2023/12/08 04:54:54;;;;;;;26.27;14.30;;;1.70;99.90;;;;;;5010819;28;20103;-72
2023/12/08 04:57:19;;;;;;;27.90;14.13;;;1.70;99.90;;;;;;5009006;28;20041;-73
2023/12/08 04:59:45;;;;;;;24.63;13.75;;;1.80;99.90;;;;;;5006813;28;20042;-73
2023/12/08 05:02:11;;;;;;;21.85;12.57;;;1.70;99.90;;;;;;4996378;28;20046;-73
2023/12/08 05:04:36;;;;;;;25.90;14.02;;;1.80;99.90;;;;;;4992368;28;20042;-73
2023/12/08 05:07:03;;;;;;;24.67;13.88;;;1.80;99.90;;;;;;4995514;28;20046;-73
2023/12/08 05:09:28;;;;;;;26.92;13.70;;;1.60;99.90;;;;;;5003593;28;20042;-73
2023/12/08 05:11:54;;;;;;;26.65;14.60;;;1.80;99.90;;;;;;5011818;28;20046;-73
2023/12/08 05:14:20;;;;;;;20.50;13.27;;;1.80;99.90;;;;;;5011801;28;20045;-73
2023/12/08 05:16:45;;;;;;;29.50;14.00;;;1.70;99.90;;;;;;5010277;28;20044;-73
2023/12/08 05:19:11;;;;;;;26.48;13.00;;;1.60;99.90;;;;;;5003535;28;20042;-73
2023/12/08 05:21:36;;;;;;;27.63;14.00;;;1.70;99.90;;;;;;5011813;28;20038;-73
2023/12/08 05:24:02;;;;;;;25.17;15.15;;;1.70;99.90;;;;;;5011776;28;20034;-73
2023/12/08 05:26:28;;;;;;;30.42;14.50;;;1.70;99.90;;;;;;5010132;28;20556;-73
2023/12/08 05:28:54;;;;;;;26.17;14.52;;;1.60;99.90;;;;;;5011455;28;20046;-73
2023/12/08 05:31:20;;;;;;;27.15;13.63;;;1.60;99.90;;;;;;5010414;28;20417;-73
2023/12/08 05:33:45;;;;;;;31.10;15.73;;;1.80;99.90;;;;;;5011596;28;20038;-73
2023/12/08 05:36:11;;;;;;;28.90;15.32;;;1.60;99.90;;;;;;5011346;28;20046;-73
2023/12/08 05:38:36;;;;;;;26.00;14.70;;;1.60;99.90;;;;;;5005694;28;20038;-72
2023/12/08 05:41:03;;;;;;;29.35;15.82;;;1.60;99.90;;;;;;5009043;28;20149;-73
2023/12/08 05:43:29;;;;;;;28.33;15.88;;;1.60;99.90;;;;;;5012093;28;20109;-72
2023/12/08 05:45:55;;;;;;;29.50;14.70;;;1.70;99.90;;;;;;5013637;28;20528;-72
2023/12/08 05:48:21;;;;;;;31.42;15.35;;;1.50;99.90;;;;;;5015037;28;20029;-73
2023/12/08 05:50:47;;;;;;;29.48;16.00;;;1.60;99.90;;;;;;5014058;28;20409;-72
2023/12/08 05:53:13;;;;;;;28.90;15.65;;;1.50;99.90;;;;;;5013841;28;20046;-72
2023/12/08 05:55:39;;;;;;;30.00;15.38;;;1.60;99.90;;;;;;5013667;28;20509;-72
2023/12/08 05:58:05;;;;;;;28.33;15.05;;;1.40;99.90;;;;;;5014584;28;20077;-72
2023/12/08 06:00:30;;;;;;;27.08;14.73;;;1.60;99.90;;;;;;5013515;28;20485;-72
2023/12/08 06:02:56;;;;;;;28.90;15.18;;;1.50;99.90;;;;;;5006746;28;20035;-73
2023/12/08 06:05:21;;;;;;;30.80;15.23;;;1.60;99.90;;;;;;5014662;28;20066;-72
2023/12/08 06:07:47;;;;;;;31.15;16.05;;;1.60;99.90;;;;;;5013305;28;20038;-72
2023/12/08 06:10:12;;;;;;;26.13;14.52;;;1.60;99.90;;;;;;5014822;28;20073;-72
2023/12/08 06:12:39;;;;;;;32.05;15.18;;;1.40;99.90;;;;;;5013316;28;20076;-72
2023/12/08 06:15:09;;;;;;;29.63;15.30;;;1.50;99.90;;;;;;5013242;28;20484;-72
2023/12/08 06:17:35;;;;;;;30.25;15.35;;;1.70;99.90;;;;;;5013059;28;20046;-72
2023/12/08 06:20:04;;;;;;;28.88;15.13;;;1.40;99.90;;;;;;5014536;28;20037;-72
2023/12/08 06:22:30;;;;;;;27.92;14.32;;;1.70;99.90;;;;;;5014601;28;20044;-72
2023/12/08 06:24:56;;;;;;;26.85;15.23;;;1.40;99.90;;;;;;5014460;28;20109;-72
2023/12/08 06:27:21;;;;;;;31.75;16.27;;;1.50;99.90;;;;;;5012775;28;20516;-72
2023/12/08 06:29:47;;;;;;;27.83;15.18;;;1.50;99.90;;;;;;5014522;28;20458;-73
2023/12/08 06:32:13;;;;;;;29.88;15.77;;;1.70;99.90;;;;;;5013095;28;20045;-72
2023/12/08 06:34:38;;;;;;;29.58;15.32;;;1.40;99.90;;;;;;5014362;28;20037;-72
2023/12/08 06:37:04;;;;;;;31.67;14.77;;;1.70;99.90;;;;;;5013922;28;20054;-72
2023/12/08 06:39:29;;;;;;;35.17;16.48;;;1.50;99.90;;;;;;5014267;28;20038;-73
2023/12/08 06:41:55;;;;;;;28.67;15.57;;;1.60;99.90;;;;;;5014114;28;20030;-72
2023/12/08 06:44:21;;;;;;;27.83;14.10;;;1.40;99.90;;;;;;5013164;28;20121;-72
2023/12/08 06:46:46;;;;;;;28.00;14.35;;;1.40;99.90;;;;;;5013861;28;20037;-72
2023/12/08 06:49:12;;;;;;;29.65;15.55;;;1.40;99.90;;;;;;5005813;28;20122;-72
2023/12/08 06:51:38;;;;;;;30.58;15.63;;;1.60;99.90;;;;;;5012753;28;20049;-72
2023/12/08 06:54:04;;;;;;;32.35;16.23;;;1.60;99.90;;;;;;5013882;28;20576;-72
2023/12/08 06:56:30;;;;;;;33.10;16.40;;;1.60;99.90;;;;;;5011907;28;20049;-72
2023/12/08 06:58:56;;;;;;;29.42;15.75;;;1.50;99.90;;;;;;5013947;28;20034;-72
2023/12/08 07:01:22;;;;;;;32.05;16.00;;;1.60;99.90;;;;;;5013852;28;20049;-73
2023/12/08 07:03:48;;;;;;;35.13;15.57;;;1.50;99.90;;;;;;5013887;28;20040;-72
2023/12/08 07:06:14;;;;;;;30.90;15.38;;;1.40;99.90;;;;;;5012178;28;20042;-73
2023/12/08 07:08:40;;;;;;;26.55;14.77;;;1.60;99.90;;;;;;5013684;28;20073;-72
2023/12/08 07:11:05;;;;;;;31.50;16.77;;;1.40;99.90;;;;;;5013554;28;20513;-72
2023/12/08 07:13:31;;;;;;;30.52;16.25;;;1.50;99.90;;;;;;5013739;28;20038;-72
2023/12/08 07:15:57;;;;;;;30.52;15.52;;;1.60;99.90;;;;;;5013390;28;20041;-73
2023/12/08 07:18:22;;;;;;;33.45;16.17;;;1.60;99.90;;;;;;5013385;28;20448;-73
2023/12/08 07:20:48;;;;;;;31.08;17.73;;;1.40;99.90;;;;;;5013428;28;20038;-72
2023/12/08 07:23:14;;;;;;;29.13;15.13;;;1.50;99.90;;;;;;5013393;28;20544;-72
2023/12/08 07:25:39;;;;;;;31.83;17.45;;;1.70;99.90;;;;;;5013138;28;20030;-72
2023/12/08 07:28:05;;;;;;;30.08;15.63;;;1.70;99.90;;;;;;5013178;28;20084;-73
2023/12/08 07:30:30;;;;;;;30.63;16.38;;;1.60;99.90;;;;;;5013186;28;20171;-72
2023/12/08 07:32:56;;;;;;;32.25;16.95;;;1.60;99.90;;;;;;5013334;28;20042;-72
2023/12/08 07:35:22;;;;;;;33.90;16.65;;;1.60;99.90;;;;;;5012864;28;20042;-72
2023/12/08 07:37:49;;;;;;;33.70;18.85;;;1.60;99.90;;;;;;5012753;28;20084;-73
2023/12/08 07:40:14;;;;;;;32.05;17.17;;;1.70;99.90;;;;;;5011657;28;20121;-72
2023/12/08 07:42:41;;;;;;;32.88;16.45;;;1.70;99.90;;;;;;5013117;28;20092;-72
2023/12/08 07:45:08;;;;;;;34.90;17.15;;;1.70;99.90;;;;;;5012846;28;20494;-72
2023/12/08 07:47:34;;;;;;;33.47;17.58;;;1.60;99.90;;;;;;5011277;28;20041;-72
2023/12/08 07:50:00;;;;;;;34.38;17.00;;;1.70;99.90;;;;;;5011812;28;20096;-72
2023/12/08 07:52:26;;;;;;;34.92;18.10;;;1.70;99.90;;;;;;5012841;28;20497;-72
2023/12/08 07:54:51;;;;;;;32.55;17.80;;;1.50;99.90;;;;;;5012701;28;20060;-73
2023/12/08 07:57:18;;;;;;;33.92;17.88;;;1.60;99.90;;;;;;5012293;28;20056;-72
2023/12/08 07:59:44;;;;;;;34.92;16.92;;;1.70;99.90;;;;;;5012687;28;20050;-72
2023/12/08 08:02:10;;;;;;;37.58;17.88;;;1.70;99.90;;;;;;5012685;28;20045;-72
2023/12/08 08:04:35;;;;;;;33.53;18.17;;;1.70;99.90;;;;;;5012645;28;20473;-72
2023/12/08 08:07:01;;;;;;;35.28;17.23;;;1.50;99.90;;;;;;5011286;28;20034;-73
2023/12/08 08:09:26;;;;;;;29.00;15.68;;;1.70;99.90;;;;;;5012381;28;20084;-72
2023/12/08 08:11:52;;;;;;;33.30;16.75;;;1.60;99.90;;;;;;5011114;28;20409;-72
2023/12/08 08:14:20;;;;;;;35.00;18.65;;;1.60;99.90;;;;;;5012503;28;20037;-72
2023/12/08 08:16:47;;;;;;;33.33;16.73;;;1.70;99.90;;;;;;5010619;28;20042;-73
2023/12/08 08:19:13;;;;;;;34.85;16.60;;;1.80;99.90;;;;;;5012187;28;20206;-72
2023/12/08 08:21:38;;;;;;;35.92;17.80;;;1.80;99.90;;;;;;5012212;28;20069;-73
2023/12/08 08:24:04;;;;;;;36.70;17.65;;;1.60;99.90;;;;;;5012013;28;20113;-73
2023/12/08 08:26:30;;;;;;;33.25;16.42;;;1.70;99.90;;;;;;5011974;28;20401;-72
2023/12/08 08:28:55;;;;;;;30.50;15.75;;;1.70;99.90;;;;;;5012001;28;20038;-73
2023/12/08 08:31:21;;;;;;;30.70;16.10;;;1.80;99.90;;;;;;5012091;28;20052;-73
2023/12/08 08:33:47;;;;;;;30.25;15.88;;;1.70;99.90;;;;;;5012010;28;20084;-73
2023/12/08 08:36:13;;;;;;;31.48;16.08;;;1.50;99.90;;;;;;5011632;28;20449;-73
2023/12/08 08:38:38;;;;;;;35.05;16.92;;;1.60;99.90;;;;;;5011633;28;20038;-72
2023/12/08 08:41:04;;;;;;;35.13;17.90;;;1.50;99.90;;;;;;5012116;28;20092;-72
2023/12/08 08:43:30;;;;;;;30.90;15.82;;;1.80;99.90;;;;;;5011930;28;20042;-73
2023/12/08 08:45:56;;;;;;;33.70;17.83;;;1.50;99.90;;;;;;5011796;28;20038;-72
2023/12/08 08:48:21;;;;;;;32.47;16.13;;;1.60;99.90;;;;;;5011849;28;20038;-73
2023/12/08 08:50:48;;;;;;;37.80;16.45;;;1.70;99.90;;;;;;5010985;28;20046;-73
2023/12/08 08:53:17;;;;;;;28.45;15.43;;;1.80;99.90;;;;;;5011589;28;20168;-73
2023/12/08 08:55:43;;;;;;;29.83;16.25;;;1.80;99.90;;;;;;5009617;28;20073;-73
2023/12/08 08:58:09;;;;;;;34.08;15.95;;;1.70;99.90;;;;;;5011230;28;20041;-73
2023/12/08 09:00:35;;;;;;;33.03;16.52;;;1.90;99.90;;;;;;5011562;28;20045;-73
2023/12/08 09:03:01;;;;;;;34.20;17.17;;;1.60;99.90;;;;;;5011890;28;20042;-73
2023/12/08 09:05:27;;;;;;;33.55;15.95;;;1.70;99.90;;;;;;5010521;28;20417;-73
2023/12/08 09:07:54;;;;;;;30.40;16.80;;;1.90;99.90;;;;;;5011450;28;20065;-73
2023/12/08 09:10:20;;;;;;;33.45;16.73;;;1.80;99.90;;;;;;5011953;28;20085;-73
2023/12/08 09:12:46;;;;;;;32.80;16.92;;;1.60;99.90;;;;;;5011955;28;20064;-73
2023/12/08 09:15:13;;;;;;;32.35;15.23;;;1.90;99.90;;;;;;5010527;28;20490;-73
2023/12/08 09:17:39;;;;;;;30.85;16.60;;;1.70;99.90;;;;;;5010757;28;20041;-73
2023/12/08 09:20:07;;;;;;;31.70;16.00;;;1.70;99.90;;;;;;5014330;28;20041;-73
2023/12/08 09:22:34;;;;;;;31.38;16.00;;;1.90;99.90;;;;;;5015554;28;20044;-74
2023/12/08 09:25:01;;;;;;;31.80;16.13;;;1.70;99.90;;;;;;5015752;28;20037;-74
2023/12/08 09:27:27;;;;;;;33.30;16.02;;;1.70;99.90;;;;;;5013930;28;20044;-73
2023/12/08 09:29:52;;;;;;;29.75;14.63;;;1.70;99.90;;;;;;5014604;28;20116;-73
2023/12/08 09:32:18;;;;;;;36.70;16.65;;;1.80;99.90;;;;;;5014289;28;20111;-73
2023/12/08 09:34:44;;;;;;;31.05;16.08;;;1.80;99.90;;;;;;5015410;28;20042;-73
2023/12/08 09:37:09;;;;;;;30.15;14.75;;;1.80;99.90;;;;;;5013660;28;20038;-73
2023/12/08 09:39:35;;;;;;;34.35;16.30;;;1.80;99.90;;;;;;5014313;28;20092;-73
2023/12/08 09:42:07;;;;;;;33.58;15.75;;;1.70;99.90;;;;;;5015160;28;20516;-73
2023/12/08 09:44:33;;;;;;;32.70;17.33;;;2.00;99.90;;;;;;5008787;28;20038;-73
2023/12/08 09:47:03;;;;;;;32.17;16.05;;;1.80;99.90;;;;;;5014442;28;20045;-73
2023/12/08 09:49:30;;;;;;;32.10;16.70;;;2.00;99.90;;;;;;5014857;28;20041;-73
2023/12/08 09:51:57;;;;;;;29.75;16.33;;;1.80;99.90;;;;;;5014805;28;20044;-73
2023/12/08 09:54:23;;;;;;;30.95;16.70;;;1.70;99.90;;;;;;5014712;28;20124;-73
2023/12/08 09:56:52;;;;;;;34.60;17.38;;;1.90;99.90;;;;;;5014217;28;20045;-73
2023/12/08 09:59:23;;;;;;;33.08;17.15;;;1.90;99.90;;;;;;5013221;28;20653;-73
2023/12/08 10:01:49;;;;;;;31.50;15.30;;;2.00;99.90;;;;;;5014708;28;20043;-73
2023/12/08 10:04:15;;;;;;;30.27;14.50;;;1.80;99.90;;;;;;5014950;28;20060;-73
2023/12/08 10:06:40;;;;;;;30.35;17.67;;;1.90;99.90;;;;;;5014782;28;20038;-73
2023/12/08 10:09:07;;;;;;;30.45;14.77;;;1.80;99.90;;;;;;5014925;28;20030;-73
2023/12/08 10:11:33;;;;;;;33.60;15.95;;;1.80;99.90;;;;;;5014341;28;20402;-73
2023/12/08 10:14:00;;;;;;;33.75;16.30;;;1.80;99.90;;;;;;5014330;28;20409;-73
2023/12/08 10:16:26;;;;;;;31.67;16.20;;;1.80;99.90;;;;;;5013786;28;20050;-73
2023/12/08 10:19:05;;;;;;;32.13;15.50;;;1.90;99.90;;;;;;5013783;28;20042;-73
2023/12/08 10:21:31;;;;;;;33.13;16.83;;;2.00;99.90;;;;;;5012820;28;20462;-73
2023/12/08 10:24:03;;;;;;;31.98;16.35;;;1.80;99.90;;;;;;5014505;28;20125;-73
2023/12/08 10:26:30;;;;;;;31.05;18.17;;;1.90;99.90;;;;;;5013726;28;20045;-72
2023/12/08 10:28:57;;;;;;;28.20;14.30;;;1.90;99.90;;;;;;5013912;28;20033;-74
2023/12/08 10:31:23;;;;;;;33.45;17.38;;;1.90;99.90;;;;;;5013600;28;20040;-72
2023/12/08 10:33:52;;;;;;;31.85;17.13;;;2.10;99.90;;;;;;5014505;28;20046;-72
2023/12/08 10:36:19;;;;;;;27.25;15.63;;;2.10;99.90;;;;;;5013097;28;20528;-72
2023/12/08 10:38:46;;;;;;;33.47;17.05;;;1.90;99.90;;;;;;5014173;28;20056;-72
2023/12/08 10:41:13;;;;;;;29.52;15.35;;;2.10;99.90;;;;;;5014261;28;20037;-72
2023/12/08 10:43:39;;;;;;;30.55;16.48;;;1.90;99.90;;;;;;5005075;28;20460;-72
2023/12/08 10:46:06;;;;;;;32.25;16.55;;;2.10;99.90;;;;;;5002490;28;20046;-72
2023/12/08 10:48:33;;;;;;;35.40;16.55;;;1.80;99.90;;;;;;5012792;28;20100;-73
2023/12/08 10:50:59;;;;;;;35.30;17.13;;;1.90;99.90;;;;;;5006147;28;20042;-72
2023/12/08 10:53:25;;;;;;;35.15;17.08;;;2.00;99.90;;;;;;5012463;28;20061;-72
2023/12/08 10:56:12;;;;;;;32.65;17.17;;;2.10;99.90;;;;;;5013740;28;20037;-72
2023/12/08 10:58:42;;;;;;;30.52;16.48;;;2.10;99.90;;;;;;5014070;28;20038;-72
2023/12/08 11:01:12;;;;;;;32.05;16.95;;;2.10;99.90;;;;;;5012693;28;20093;-72
2023/12/08 11:03:43;;;;;;;35.08;16.30;;;2.00;99.90;;;;;;5013902;28;20037;-73
2023/12/08 11:06:14;;;;;;;29.63;15.70;;;2.00;99.90;;;;;;5013552;28;20068;-72
2023/12/08 11:08:45;;;;;;;34.15;17.10;;;1.90;99.90;;;;;;5013546;28;20034;-72
2023/12/08 11:11:12;;;;;;;34.38;17.85;;;2.00;99.90;;;;;;5013849;28;20049;-72
2023/12/08 11:13:43;;;;;;;36.63;17.88;;;1.90;99.90;;;;;;5013682;28;20095;-72
2023/12/08 11:16:27;;;;;;;37.20;18.15;;;2.10;99.90;;;;;;5013394;28;20052;-73
2023/12/08 11:18:55;;;;;;;35.65;17.30;;;2.20;99.90;;;;;;5013476;28;20041;-72
2023/12/08 11:21:22;;;;;;;35.53;17.25;;;2.00;99.90;;;;;;5013342;28;20050;-72
2023/12/08 11:23:49;;;;;;;36.40;18.27;;;2.20;99.90;;;;;;5013570;28;20622;-72
2023/12/08 11:26:28;;;;;;;35.10;16.83;;;2.20;99.90;;;;;;5012974;28;20501;-72
2023/12/08 11:29:16;;;;;;;31.73;16.98;;;2.00;99.90;;;;;;5013341;28;20073;-72
2023/12/08 11:32:02;;;;;;;34.47;18.75;;;2.20;99.90;;;;;;5013203;28;20049;-72
2023/12/08 11:34:37;;;;;;;32.20;15.93;;;2.20;99.90;;;;;;5011928;28;20061;-71
2023/12/08 11:37:03;;;;;;;36.28;17.92;;;2.30;99.90;;;;;;5012338;28;20057;-71
2023/12/08 11:39:37;;;;;;;40.80;17.13;;;2.40;99.90;;;;;;5012040;28;20046;-71
2023/12/08 11:42:16;;;;;;;42.50;18.30;;;2.60;99.90;;;;;;5011600;28;20078;-71
2023/12/08 11:44:45;;;;;;;34.65;17.63;;;2.70;99.90;;;;;;5012533;28;20033;-71
2023/12/08 11:47:16;;;;;;;37.58;18.65;;;2.50;99.90;;;;;;5012402;28;20524;-71
2023/12/08 11:49:44;;;;;;;37.83;19.38;;;2.80;99.90;;;;;;5009788;28;20042;-71
2023/12/08 11:52:15;;;;;;;38.33;19.30;;;2.70;99.90;;;;;;5004509;28;20061;-71
2023/12/08 11:58:04;;;;;;;33.58;17.23;;;2.80;99.90;;;;;;4993134;28;20058;-71
2023/12/08 12:00:32;;;;;;;37.00;19.15;;;2.80;99.90;;;;;;4993096;28;20230;-71
2023/12/08 12:02:59;;;;;;;38.53;18.33;;;2.80;99.90;;;;;;4993074;28;20600;-71
2023/12/08 12:05:26;;;;;;;39.90;19.08;;;2.80;99.90;;;;;;4992939;28;20442;-71
2023/12/08 12:07:54;;;;;;;41.50;20.52;;;2.80;99.90;;;;;;4992922;28;20038;-71
2023/12/08 12:10:32;;;;;;;46.03;20.48;;;3.00;99.90;;;;;;4991804;28;20050;-71
2023/12/08 12:13:11;;;;;;;37.30;17.58;;;2.80;99.90;;;;;;4993020;28;20409;-71
2023/12/08 12:15:37;;;;;;;39.03;19.05;;;2.90;99.90;;;;;;4993002;28;20073;-71
2023/12/08 12:18:04;;;;;;;34.25;19.80;;;2.90;99.90;;;;;;4992555;28;20081;-71
2023/12/08 12:20:38;;;;;;;38.83;17.83;;;2.90;99.90;;;;;;4992790;28;20094;-71
2023/12/08 12:23:04;;;;;;;36.28;19.33;;;3.00;99.90;;;;;;4992846;28;20045;-71
2023/12/08 12:25:30;;;;;;;43.90;20.15;;;2.90;99.90;;;;;;4992619;28;20375;-71
2023/12/08 12:27:57;;;;;;;42.47;20.08;;;2.90;99.90;;;;;;4992433;28;20164;-71
2023/12/08 12:30:23;;;;;;;34.72;18.90;;;2.90;99.90;;;;;;4992847;28;20418;-71
2023/12/08 12:32:49;;;;;;;42.78;20.65;;;2.90;99.90;;;;;;5010273;28;20041;-71
2023/12/08 12:35:16;;;;;;;38.65;19.85;;;2.90;99.90;;;;;;5011691;28;20056;-71